createdAt,value
2022-08-22T00:01:42.635Z,101192.50
2022-08-22T00:04:44.580Z,101188.13
2022-08-22T00:07:45.748Z,101186.22
2022-08-22T00:10:35.510Z,101189.47
2022-08-22T00:13:19.805Z,101198.69
2022-08-22T00:16:14.534Z,101195.22
2022-08-22T00:18:51.268Z,101188.22
2022-08-22T00:21:26.251Z,101182.91
2022-08-22T00:24:29.215Z,101183.19
2022-08-22T00:27:02.041Z,101183.59
2022-08-22T00:29:43.486Z,101179.63
2022-08-22T00:32:23.759Z,101181.28
2022-08-22T00:35:07.710Z,101180.44
2022-08-22T00:37:44.686Z,101179.00
2022-08-22T00:40:29.790Z,101183.28
2022-08-22T00:43:41.103Z,101188.81
2022-08-22T00:46:17.316Z,101191.50
2022-08-22T00:49:18.798Z,101186.06
2022-08-22T00:52:22.912Z,101187.03
2022-08-22T00:55:36.355Z,101192.38
2022-08-22T00:58:47.536Z,101184.59
2022-08-22T01:01:19.851Z,101190.00
2022-08-22T01:03:49.016Z,101190.56
2022-08-22T01:06:15.387Z,101188.84
2022-08-22T01:09:01.016Z,101178.06
2022-08-22T01:11:46.420Z,101183.47
2022-08-22T01:14:34.955Z,101184.28
2022-08-22T01:17:26.419Z,101189.09
2022-08-22T01:20:21.963Z,101193.81
2022-08-22T01:23:26.603Z,101196.66
2022-08-22T01:26:26.361Z,101211.06
2022-08-22T01:29:34.927Z,101201.59
2022-08-22T01:32:29.327Z,101207.34
2022-08-22T01:35:30.694Z,101215.63
2022-08-22T01:38:25.882Z,101217.19
2022-08-22T01:41:12.129Z,101222.19
2022-08-22T01:44:17.936Z,101220.50
2022-08-22T01:47:13.253Z,101215.31
2022-08-22T01:49:55.870Z,101222.81
2022-08-22T01:52:36.970Z,101213.03
2022-08-22T01:55:26.256Z,101212.22
2022-08-22T01:57:59.442Z,101212.22
2022-08-22T02:00:35.460Z,101210.22
2022-08-22T02:03:16.488Z,101209.03
2022-08-22T02:05:59.036Z,101206.94
2022-08-22T02:08:48.627Z,101206.50
2022-08-22T02:11:37.724Z,101204.97
2022-08-22T02:14:21.125Z,101209.47
2022-08-22T02:17:09.291Z,101208.72
2022-08-22T02:19:46.499Z,101207.13
2022-08-22T02:22:44.887Z,101213.44
2022-08-22T02:25:23.683Z,101212.13
2022-08-22T02:27:58.484Z,101208.38
2022-08-22T02:30:47.593Z,101208.31
2022-08-22T02:33:36.475Z,101216.69
2022-08-22T02:36:14.341Z,101214.47
2022-08-22T02:38:56.268Z,101211.72
2022-08-22T02:41:47.607Z,101208.38
2022-08-22T02:44:20.710Z,101210.53
2022-08-22T02:47:26.507Z,101209.91
2022-08-22T02:50:12.724Z,101208.75
2022-08-22T02:52:51.158Z,101198.72
2022-08-22T02:55:33.819Z,101208.06
2022-08-22T02:58:11.893Z,101209.19
2022-08-22T03:00:47.195Z,101199.66
2022-08-22T03:03:24.078Z,101199.59
2022-08-22T03:06:01.725Z,101207.69
2022-08-22T03:08:37.957Z,101201.19
2022-08-22T03:11:24.180Z,101202.34
2022-08-22T03:14:26.910Z,101202.06
2022-08-22T03:17:09.705Z,101200.38
2022-08-22T03:20:02.145Z,101195.88
2022-08-22T03:22:37.545Z,101196.56
2022-08-22T03:25:17.559Z,101199.66
2022-08-22T03:27:53.765Z,101188.41
2022-08-22T03:30:27.798Z,101190.38
2022-08-22T03:33:13.200Z,101193.81
2022-08-22T03:35:57.243Z,101191.59
2022-08-22T03:38:33.151Z,101196.41
2022-08-22T03:41:23.934Z,101194.19
2022-08-22T03:44:14.139Z,101188.28
2022-08-22T03:47:16.827Z,101194.47
2022-08-22T03:50:29.651Z,101189.66
2022-08-22T03:53:21.761Z,101192.19
2022-08-22T03:56:11.119Z,101185.75
2022-08-22T03:59:02.451Z,101198.66
2022-08-22T04:01:58.731Z,101201.53
2022-08-22T04:05:02.907Z,101209.16
2022-08-22T04:08:25.556Z,101223.91
2022-08-22T04:11:19.117Z,101218.53
2022-08-22T04:14:08.527Z,101221.56
2022-08-22T04:17:12.977Z,101226.16
2022-08-22T04:20:03.659Z,101227.00
2022-08-22T04:23:02.457Z,101224.72
2022-08-22T04:25:44.125Z,101221.28
2022-08-22T04:28:10.487Z,101232.59
2022-08-22T04:30:46.499Z,101231.16
2022-08-22T04:33:27.847Z,101235.59
2022-08-22T04:36:15.191Z,101238.25
2022-08-22T04:39:14.254Z,101244.56
2022-08-22T04:42:10.920Z,101242.16
2022-08-22T04:44:57.674Z,101240.97
2022-08-22T04:47:31.517Z,101249.63
2022-08-22T04:50:09.923Z,101247.38
2022-08-22T04:52:58.195Z,101248.81
2022-08-22T04:55:33.015Z,101254.38
2022-08-22T04:58:20.198Z,101260.56
2022-08-22T05:01:12.013Z,101254.31
2022-08-22T05:03:45.807Z,101263.59
2022-08-22T05:06:19.058Z,101262.66
2022-08-22T05:08:48.399Z,101262.94
2022-08-22T05:11:23.442Z,101263.38
2022-08-22T05:13:55.131Z,101268.69
2022-08-22T05:16:25.112Z,101264.53
2022-08-22T05:19:01.433Z,101263.19
2022-08-22T05:21:33.916Z,101262.50
2022-08-22T05:24:05.156Z,101262.34
2022-08-22T05:26:38.544Z,101270.97
2022-08-22T05:29:08.246Z,101276.59
2022-08-22T05:31:48.150Z,101272.84
2022-08-22T05:34:20.282Z,101282.16
2022-08-22T05:36:54.151Z,101275.34
2022-08-22T05:39:27.840Z,101290.47
2022-08-22T05:42:00.294Z,101284.00
2022-08-22T05:44:37.555Z,101282.41
2022-08-22T05:47:25.786Z,101280.78
2022-08-22T05:50:07.264Z,101288.59
2022-08-22T05:53:06.229Z,101291.91
2022-08-22T05:55:48.612Z,101297.19
2022-08-22T05:58:30.166Z,101295.13
2022-08-22T06:01:38.803Z,101292.34
2022-08-22T06:04:14.382Z,101298.44
2022-08-22T06:06:51.550Z,101294.19
2022-08-22T06:09:24.475Z,101293.47
2022-08-22T06:12:02.412Z,101299.88
2022-08-22T06:14:45.144Z,101301.59
2022-08-22T06:17:18.587Z,101304.03
2022-08-22T06:19:48.647Z,101303.75
2022-08-22T06:22:21.391Z,101297.72
2022-08-22T06:24:49.875Z,101311.94
2022-08-22T06:27:22.862Z,101299.63
2022-08-22T06:29:56.364Z,101303.19
2022-08-22T06:32:44.440Z,101304.44
2022-08-22T06:35:22.360Z,101303.91
2022-08-22T06:37:51.708Z,101312.56
2022-08-22T06:40:18.823Z,101311.59
2022-08-22T06:42:50.452Z,101300.97
2022-08-22T06:45:31.024Z,101306.41
2022-08-22T06:48:06.965Z,101320.28
2022-08-22T06:50:36.824Z,101311.03
2022-08-22T06:53:07.557Z,101313.94
2022-08-22T06:55:38.037Z,101320.31
2022-08-22T06:58:15.418Z,101316.25
2022-08-22T07:00:43.517Z,101318.47
2022-08-22T07:04:02.494Z,101314.22
2022-08-22T07:06:32.123Z,101319.91
2022-08-22T07:08:58.767Z,101325.69
2022-08-22T07:11:31.431Z,101321.84
2022-08-22T07:14:05.393Z,101322.63
2022-08-22T07:16:49.693Z,101330.63
2022-08-22T07:19:47.271Z,101324.69
2022-08-22T07:22:23.707Z,101320.19
2022-08-22T07:24:56.286Z,101334.06
2022-08-22T07:27:48.882Z,101336.25
2022-08-22T07:30:28.071Z,101329.97
2022-08-22T07:33:25.172Z,101331.19
2022-08-22T07:35:59.731Z,101337.38
2022-08-22T07:38:42.968Z,101333.69
2022-08-22T07:41:21.925Z,101330.69
2022-08-22T07:44:05.366Z,101329.22
2022-08-22T07:46:51.245Z,101331.53
2022-08-22T07:49:30.554Z,101336.22
2022-08-22T07:52:12.176Z,101334.34
2022-08-22T07:55:08.762Z,101338.03
2022-08-22T07:57:43.100Z,101341.72
2022-08-22T08:00:16.881Z,101331.16
2022-08-22T08:02:49.739Z,101332.47
2022-08-22T08:05:17.611Z,101335.97
2022-08-22T08:07:45.920Z,101337.97
2022-08-22T08:10:18.392Z,101332.41
2022-08-22T08:13:01.651Z,101333.88
2022-08-22T08:15:32.006Z,101338.69
2022-08-22T08:18:03.727Z,101338.78
2022-08-22T08:20:30.743Z,101342.28
2022-08-22T08:22:58.482Z,101335.72
2022-08-22T08:25:27.600Z,101335.50
2022-08-22T08:28:15.839Z,101333.97
2022-08-22T08:30:55.709Z,101341.09
2022-08-22T08:33:26.985Z,101348.88
2022-08-22T08:36:17.319Z,101335.56
2022-08-22T08:38:53.135Z,101336.19
2022-08-22T08:41:50.893Z,101337.28
2022-08-22T08:44:32.899Z,101333.19
2022-08-22T08:47:22.803Z,101332.81
2022-08-22T08:50:07.403Z,101323.88
2022-08-22T08:53:14.274Z,101323.34
2022-08-22T08:55:45.406Z,101320.59
2022-08-22T08:58:33.733Z,101326.56
2022-08-22T09:01:00.217Z,101323.97
2022-08-22T09:03:47.617Z,101318.06
2022-08-22T09:06:50.781Z,101328.81
2022-08-22T09:10:01.107Z,101321.81
2022-08-22T09:12:56.265Z,101319.13
2022-08-22T09:16:04.715Z,101322.13
2022-08-22T09:19:01.123Z,101319.84
2022-08-22T09:22:04.154Z,101323.75
2022-08-22T09:24:48.270Z,101316.66
2022-08-22T09:27:36.778Z,101323.41
2022-08-22T09:30:17.120Z,101325.88
2022-08-22T09:33:04.182Z,101324.09
2022-08-22T09:36:05.345Z,101328.25
2022-08-22T09:38:53.874Z,101325.16
2022-08-22T09:41:30.479Z,101322.81
2022-08-22T09:44:01.820Z,101328.16
2022-08-22T09:46:49.548Z,101320.97
2022-08-22T09:49:45.887Z,101325.25
2022-08-22T09:52:34.183Z,101315.50
2022-08-22T09:55:16.151Z,101326.53
2022-08-22T09:57:59.875Z,101321.97
2022-08-22T10:00:40.549Z,101329.69
2022-08-22T10:03:23.211Z,101328.50
2022-08-22T10:06:00.549Z,101322.97
2022-08-22T10:08:32.920Z,101319.66
2022-08-22T10:11:02.677Z,101322.69
2022-08-22T10:13:40.136Z,101327.09
2022-08-22T10:16:19.384Z,101333.34
2022-08-22T10:19:00.544Z,101325.22
2022-08-22T10:21:45.860Z,101324.44
2022-08-22T10:24:32.204Z,101328.31
2022-08-22T10:27:11.763Z,101324.34
2022-08-22T10:29:57.832Z,101327.16
2022-08-22T10:32:49.335Z,101326.13
2022-08-22T10:35:33.957Z,101328.19
2022-08-22T10:38:16.479Z,101333.19
2022-08-22T10:41:10.240Z,101326.06
2022-08-22T10:44:01.507Z,101329.97
2022-08-22T10:46:54.917Z,101329.53
2022-08-22T10:49:35.916Z,101318.94
2022-08-22T10:52:16.769Z,101320.50
2022-08-22T10:54:49.812Z,101313.47
2022-08-22T10:57:38.041Z,101317.91
2022-08-22T11:00:22.424Z,101317.31
2022-08-22T11:03:24.834Z,101321.28
2022-08-22T11:05:54.286Z,101322.91
2022-08-22T11:08:48.823Z,101321.38
2022-08-22T11:11:36.656Z,101323.78
2022-08-22T11:14:24.570Z,101321.00
2022-08-22T11:16:58.955Z,101315.91
2022-08-22T11:19:46.592Z,101310.03
2022-08-22T11:22:46.123Z,101314.47
2022-08-22T11:25:28.676Z,101305.63
2022-08-22T11:28:32.797Z,101305.66
2022-08-22T11:31:16.151Z,101308.50
2022-08-22T11:33:49.904Z,101313.31
2022-08-22T11:36:31.115Z,101289.88
2022-08-22T11:39:25.019Z,101294.84
2022-08-22T11:42:04.337Z,101304.44
2022-08-22T11:44:53.891Z,101302.75
2022-08-22T11:47:28.070Z,101298.53
2022-08-22T11:50:25.040Z,101295.81
2022-08-22T11:53:04.453Z,101293.53
2022-08-22T11:55:48.323Z,101294.59
2022-08-22T11:58:45.667Z,101305.69
2022-08-22T12:01:27.299Z,101297.19
2022-08-22T12:04:09.846Z,101300.72
2022-08-22T12:07:01.951Z,101304.94
2022-08-22T12:09:59.433Z,101302.25
2022-08-22T12:12:37.620Z,101295.22
2022-08-22T12:15:10.246Z,101294.59
2022-08-22T12:18:01.324Z,101296.91
2022-08-22T12:20:52.268Z,101289.50
2022-08-22T12:23:43.522Z,101282.44
2022-08-22T12:26:28.176Z,101284.72
2022-08-22T12:29:06.115Z,101282.22
2022-08-22T12:32:16.452Z,101274.00
2022-08-22T12:35:20.621Z,101271.44
2022-08-22T12:38:28.360Z,101271.81
2022-08-22T12:41:28.421Z,101269.63
2022-08-22T12:44:17.052Z,101262.59
2022-08-22T12:47:11.811Z,101265.53
2022-08-22T12:50:21.574Z,101256.03
2022-08-22T12:53:38.667Z,101263.28
2022-08-22T12:56:26.806Z,101259.44
2022-08-22T12:59:17.723Z,101258.00
2022-08-22T13:01:47.075Z,101258.00
2022-08-22T13:04:19.194Z,101258.22
2022-08-22T13:07:30.515Z,101258.97
2022-08-22T13:10:28.520Z,101258.56
2022-08-22T13:12:58.132Z,101244.09
2022-08-22T13:15:36.751Z,101248.34
2022-08-22T13:18:30.082Z,101253.25
2022-08-22T13:21:00.960Z,101243.06
2022-08-22T13:23:39.940Z,101244.34
2022-08-22T13:26:33.649Z,101235.97
2022-08-22T13:29:39.575Z,101241.09
2022-08-22T13:32:04.491Z,101241.44
2022-08-22T13:34:48.257Z,101239.19
2022-08-22T13:37:28.282Z,101251.38
2022-08-22T13:40:00.932Z,101242.94
2022-08-22T13:42:31.611Z,101244.13
2022-08-22T13:45:02.557Z,101237.81
2022-08-22T13:47:32.399Z,101237.75
2022-08-22T13:50:19.187Z,101242.78
2022-08-22T13:53:13.734Z,101247.16
2022-08-22T13:55:49.248Z,101250.03
2022-08-22T13:58:38.621Z,101247.47
2022-08-22T14:01:28.446Z,101244.06
2022-08-22T14:04:05.443Z,101232.94
2022-08-22T14:06:49.683Z,101238.69
2022-08-22T14:09:32.065Z,101244.63
2022-08-22T14:12:16.971Z,101236.59
2022-08-22T14:14:47.130Z,101231.66
2022-08-22T14:17:17.472Z,101237.75
2022-08-22T14:19:58.677Z,101236.53
2022-08-22T14:22:31.758Z,101238.22
2022-08-22T14:25:07.260Z,101233.66
2022-08-22T14:27:39.542Z,101237.78
2022-08-22T14:30:18.646Z,101230.25
2022-08-22T14:32:51.322Z,101232.84
2022-08-22T14:35:31.415Z,101235.31
2022-08-22T14:38:29.829Z,101229.00
2022-08-22T14:41:04.162Z,101233.75
2022-08-22T14:43:31.879Z,101235.50
2022-08-22T14:46:08.691Z,101235.53
2022-08-22T14:48:43.317Z,101238.47
2022-08-22T14:51:26.822Z,101225.78
2022-08-22T14:54:21.280Z,101223.66
2022-08-22T14:56:50.337Z,101237.78
2022-08-22T14:59:36.853Z,101243.25
2022-08-22T15:02:09.622Z,101243.34
2022-08-22T15:04:43.916Z,101242.59
2022-08-22T15:07:13.677Z,101244.06
2022-08-22T15:09:48.852Z,101244.06
2022-08-22T15:12:28.533Z,101242.97
2022-08-22T15:15:00.451Z,101241.78
2022-08-22T15:17:51.002Z,101245.91
2022-08-22T15:20:38.254Z,101248.22
2022-08-22T15:23:19.579Z,101250.19
2022-08-22T15:25:58.651Z,101251.31
2022-08-22T15:28:25.975Z,101240.00
2022-08-22T15:30:54.062Z,101245.75
2022-08-22T15:33:32.242Z,101248.97
2022-08-22T15:36:15.859Z,101243.34
2022-08-22T15:38:48.794Z,101239.00
2022-08-22T15:41:51.037Z,101242.97
2022-08-22T15:44:33.044Z,101235.69
2022-08-22T15:47:23.712Z,101238.53
2022-08-22T15:49:56.406Z,101232.53
2022-08-22T15:52:35.655Z,101240.66
2022-08-22T15:55:23.740Z,101241.41
2022-08-22T15:58:05.233Z,101231.22
2022-08-22T16:00:43.332Z,101243.25
2022-08-22T16:03:32.844Z,101239.03
2022-08-22T16:06:07.637Z,101239.00
2022-08-22T16:08:36.944Z,101235.59
2022-08-22T16:11:03.330Z,101235.50
2022-08-22T16:13:29.795Z,101233.94
2022-08-22T16:16:07.083Z,101235.72
2022-08-22T16:18:33.490Z,101239.19
2022-08-22T16:21:13.277Z,101238.25
2022-08-22T16:24:05.581Z,101241.16
2022-08-22T16:26:32.029Z,101237.81
2022-08-22T16:29:14.725Z,101238.63
2022-08-22T16:31:43.808Z,101237.81
2022-08-22T16:34:16.404Z,101236.97
2022-08-22T16:37:10.869Z,101233.38
2022-08-22T16:39:43.979Z,101229.69
2022-08-22T16:42:13.304Z,101236.97
2022-08-22T16:44:49.068Z,101234.63
2022-08-22T16:47:24.815Z,101243.59
2022-08-22T16:49:51.202Z,101240.72
2022-08-22T16:52:20.937Z,101237.75
2022-08-22T16:54:50.261Z,101237.16
2022-08-22T16:57:25.202Z,101237.34
2022-08-22T17:00:05.150Z,101240.13
2022-08-22T17:03:10.421Z,101236.66
2022-08-22T17:06:00.463Z,101236.50
2022-08-22T17:08:54.087Z,101232.16
2022-08-22T17:11:40.517Z,101234.75
2022-08-22T17:14:42.560Z,101234.13
2022-08-22T17:17:41.247Z,101238.03
2022-08-22T17:20:44.718Z,101243.03
2022-08-22T17:23:45.017Z,101240.91
2022-08-22T17:26:36.035Z,101238.59
2022-08-22T17:29:15.744Z,101240.28
2022-08-22T17:31:54.483Z,101242.75
2022-08-22T17:34:45.658Z,101244.56
2022-08-22T17:37:25.965Z,101241.00
2022-08-22T17:40:09.820Z,101241.69
2022-08-22T17:43:21.711Z,101250.00
2022-08-22T17:46:03.335Z,101250.41
2022-08-22T17:49:00.882Z,101253.72
2022-08-22T17:51:54.686Z,101265.06
2022-08-22T17:54:30.739Z,101261.63
2022-08-22T17:57:10.232Z,101263.78
2022-08-22T17:59:46.638Z,101265.69
2022-08-22T18:02:22.227Z,101268.69
2022-08-22T18:05:14.051Z,101268.94
2022-08-22T18:07:49.993Z,101260.56
2022-08-22T18:10:35.765Z,101264.66
2022-08-22T18:13:14.969Z,101266.31
2022-08-22T18:15:54.657Z,101279.53
2022-08-22T18:18:45.896Z,101279.16
2022-08-22T18:21:37.190Z,101285.59
2022-08-22T18:24:09.632Z,101283.69
2022-08-22T18:26:41.780Z,101286.03
2022-08-22T18:29:13.651Z,101285.53
2022-08-22T18:32:08.593Z,101285.78
2022-08-22T18:35:01.762Z,101291.59
2022-08-22T18:37:35.606Z,101297.53
2022-08-22T18:40:22.218Z,101300.97
2022-08-22T18:42:58.156Z,101304.28
2022-08-22T18:45:47.936Z,101303.56
2022-08-22T18:48:59.454Z,101303.06
2022-08-22T18:51:38.398Z,101302.16
2022-08-22T18:54:05.111Z,101307.38
2022-08-22T18:56:31.495Z,101305.63
2022-08-22T18:59:22.109Z,101299.47
2022-08-22T19:01:56.499Z,101302.41
2022-08-22T19:04:56.918Z,101301.22
2022-08-22T19:07:37.534Z,101312.34
2022-08-22T19:10:34.872Z,101312.19
2022-08-22T19:13:21.431Z,101310.97
2022-08-22T19:16:15.199Z,101318.47
2022-08-22T19:18:54.216Z,101321.25
2022-08-22T19:21:55.037Z,101320.13
2022-08-22T19:24:27.554Z,101313.38
2022-08-22T19:27:18.970Z,101331.31
2022-08-22T19:29:45.332Z,101328.59
2022-08-22T19:32:46.771Z,101328.03
2022-08-22T19:35:26.041Z,101332.41
2022-08-22T19:38:04.839Z,101327.06
2022-08-22T19:40:46.212Z,101321.88
2022-08-22T19:43:30.588Z,101322.44
2022-08-22T19:45:59.725Z,101323.84
2022-08-22T19:48:33.832Z,101326.25
2022-08-22T19:51:23.888Z,101326.56
2022-08-22T19:54:22.944Z,101321.75
2022-08-22T19:57:13.587Z,101329.16
2022-08-22T20:00:11.004Z,101338.72
2022-08-22T20:02:55.458Z,101333.84
2022-08-22T20:05:37.156Z,101332.25
2022-08-22T20:08:19.137Z,101330.81
2022-08-22T20:11:21.400Z,101329.97
2022-08-22T20:13:48.657Z,101340.47
2022-08-22T20:16:23.669Z,101338.84
2022-08-22T20:19:05.499Z,101334.78
2022-08-22T20:21:39.137Z,101342.56
2022-08-22T20:24:07.906Z,101341.09
2022-08-22T20:26:43.576Z,101334.91
2022-08-22T20:29:30.369Z,101331.56
2022-08-22T20:31:59.070Z,101319.31
2022-08-22T20:34:29.639Z,101327.50
2022-08-22T20:37:22.701Z,101329.25
2022-08-22T20:40:53.416Z,101327.47
2022-08-22T20:43:14.563Z,101332.69
2022-08-22T20:46:18.976Z,101331.34
2022-08-22T20:48:47.993Z,101342.22
2022-08-22T20:51:19.756Z,101334.97
2022-08-22T20:53:54.954Z,101338.34
2022-08-22T20:56:33.520Z,101342.00
2022-08-22T20:59:01.305Z,101327.78
2022-08-22T21:01:29.004Z,101342.97
2022-08-22T21:03:56.392Z,101335.63
2022-08-22T21:06:32.454Z,101343.16
2022-08-22T21:09:39.277Z,101346.00
2022-08-22T21:12:09.449Z,101340.13
2022-08-22T21:14:44.402Z,101344.84
2022-08-22T21:17:39.194Z,101353.22
2022-08-22T21:20:19.143Z,101350.41
2022-08-22T21:22:45.575Z,101357.13
2022-08-22T21:25:12.016Z,101358.16
2022-08-22T21:27:38.452Z,101358.28
2022-08-22T21:30:08.575Z,101356.47
2022-08-22T21:32:43.101Z,101356.97
2022-08-22T21:35:29.635Z,101361.59
2022-08-22T21:37:57.280Z,101358.47
2022-08-22T21:40:32.005Z,101356.63
2022-08-22T21:43:11.039Z,101356.13
2022-08-22T21:45:37.388Z,101357.69
2022-08-22T21:48:31.087Z,101367.88
2022-08-22T21:51:27.598Z,101357.69
2022-08-22T21:54:39.562Z,101367.72
2022-08-22T21:57:08.669Z,101360.19
2022-08-22T21:59:50.898Z,101366.09
2022-08-22T22:02:28.970Z,101369.63
2022-08-22T22:04:58.587Z,101365.09
2022-08-22T22:07:25.818Z,101368.47
2022-08-22T22:09:53.057Z,101356.91
2022-08-22T22:12:22.470Z,101358.91
2022-08-22T22:17:17.892Z,101354.72
2022-08-22T22:19:44.832Z,101349.41
2022-08-22T22:22:11.260Z,101354.44
2022-08-22T22:24:37.756Z,101356.41
2022-08-22T22:27:05.028Z,101353.25
2022-08-22T22:29:32.890Z,101344.38
2022-08-22T22:31:59.476Z,101353.75
2022-08-22T22:34:26.035Z,101348.06
2022-08-22T22:36:53.456Z,101346.91
2022-08-22T22:39:19.924Z,101340.22
2022-08-22T22:41:46.396Z,101349.56
2022-08-22T22:44:12.862Z,101350.09
2022-08-22T22:46:39.283Z,101345.91
2022-08-22T22:49:05.861Z,101347.41
2022-08-22T22:51:32.385Z,101348.59
2022-08-22T22:53:58.946Z,101340.56
2022-08-22T22:56:25.500Z,101339.41
2022-08-22T22:58:59.063Z,101337.53
2022-08-22T23:01:27.824Z,101335.38
2022-08-22T23:04:05.464Z,101341.56
2022-08-22T23:06:32.899Z,101340.38
2022-08-22T23:08:59.376Z,101332.38
2022-08-22T23:11:30.177Z,101333.38
2022-08-22T23:13:56.750Z,101336.22
2022-08-22T23:16:26.520Z,101343.91
2022-08-22T23:18:53.403Z,101341.72
2022-08-22T23:21:26.420Z,101339.72
2022-08-22T23:23:56.242Z,101343.75
2022-08-22T23:26:22.971Z,101337.22
2022-08-22T23:28:49.632Z,101343.91
2022-08-22T23:31:28.935Z,101352.25
2022-08-22T23:33:56.600Z,101345.88
2022-08-22T23:36:23.760Z,101346.72
2022-08-22T23:38:51.870Z,101351.22
2022-08-22T23:41:21.419Z,101351.41
2022-08-22T23:43:50.488Z,101355.19
2022-08-22T23:46:18.963Z,101350.56
2022-08-22T23:48:46.329Z,101354.06
2022-08-22T23:51:15.099Z,101355.41
2022-08-22T23:53:44.916Z,101353.25
2022-08-22T23:56:19.314Z,101357.22
2022-08-22T23:58:46.350Z,101360.03
